Atlanta, Michigan
Current Conditions -  °F | °C
As of 4:53 AM on Wednesday 26 Nov 2014 (Local Time) from KGLR Reporting Station
Overcast Overcast  
Wind Chill: 22°   Ceiling: 2400
Heat Index: 22°   Visibility: 10mi
Dew Point: 19°   Wind: 3mph
Humidity: 89%   Direction: 190°S
Pressure: 30.14"   Gusts: NA
Location:  45°N, 84.14°W
Report Text: KGLR 260953Z AUTO 19003KT 10SM OVC024 M06/M07 A3014 RMK AO2 SLP227 T10561072
Loading
Personal Weather Stations






























Interactive Weather Map New forecast layout! Learn more

10-Day Weather Forecast

Advertisements
Track Severe Weather on mobile